Time;durP1;ratioP1;P1;durP2;ratioP2;P2;SDS_P1;SDS_P2;PMS_P1;PMS_P2;Temp;Humidity;BMP_temperature;BMP_pressure;BME280_temperature;BME280_humidity;BME280_pressure;Samples;Min_cycle;Max_cycle;Signal;HPM_P1;HPM_P2
2022/11/01 00:01:57;;;;;;;6.25;4.93;;;18.50;99.90;;;;;;5050483;28;20187;-70
2022/11/01 00:04:23;;;;;;;5.90;4.50;;;18.50;99.90;;;;;;5033817;28;20203;-70
2022/11/01 00:06:49;;;;;;;4.85;4.35;;;18.50;99.90;;;;;;5066066;28;20203;-70
2022/11/01 00:09:16;;;;;;;6.35;4.65;;;18.60;99.90;;;;;;5050618;28;20219;-71
2022/11/01 00:11:41;;;;;;;4.60;4.15;;;18.50;99.90;;;;;;5050360;28;20195;-70
2022/11/01 00:14:15;;;;;;;4.63;4.22;;;18.50;99.90;;;;;;5034862;28;20182;-70
2022/11/01 00:16:42;;;;;;;4.88;4.38;;;18.60;99.90;;;;;;5033436;28;20314;-71
2022/11/01 00:19:08;;;;;;;5.60;4.35;;;18.50;99.90;;;;;;5066754;28;20203;-71
2022/11/01 00:21:33;;;;;;;6.75;4.80;;;18.50;99.90;;;;;;5050013;28;20187;-70
2022/11/01 00:23:59;;;;;;;4.70;4.20;;;18.50;99.90;;;;;;5050356;28;20185;-71
2022/11/01 00:26:25;;;;;;;5.18;4.68;;;18.50;99.90;;;;;;5033393;28;20558;-71
2022/11/01 00:28:53;;;;;;;5.85;4.70;;;18.50;99.90;;;;;;5049909;28;20191;-71
2022/11/01 00:31:22;;;;;;;4.53;4.00;;;18.50;99.90;;;;;;5050345;28;20269;-71
2022/11/01 00:33:48;;;;;;;5.78;4.28;;;18.50;99.90;;;;;;5033613;28;20187;-71
2022/11/01 00:36:13;;;;;;;6.18;4.47;;;18.50;99.90;;;;;;5032927;28;20626;-71
2022/11/01 00:38:39;;;;;;;4.25;3.85;;;18.50;99.90;;;;;;5033298;28;20229;-71
2022/11/01 00:41:05;;;;;;;4.18;3.78;;;18.50;99.90;;;;;;5066646;28;20578;-71
2022/11/01 00:43:33;;;;;;;4.82;3.95;;;18.50;99.90;;;;;;5036546;28;20220;-71
2022/11/01 00:46:00;;;;;;;4.60;4.15;;;18.50;99.90;;;;;;5069273;28;20198;-70
2022/11/01 00:48:27;;;;;;;4.22;3.78;;;18.50;99.90;;;;;;5054166;28;20277;-70
2022/11/01 00:50:53;;;;;;;4.30;3.90;;;18.50;99.90;;;;;;5069939;28;20237;-71
2022/11/01 00:53:19;;;;;;;4.55;3.75;;;18.50;99.90;;;;;;5069531;28;20183;-71
2022/11/01 00:55:45;;;;;;;4.15;3.72;;;18.50;99.90;;;;;;5069166;28;20210;-70
2022/11/01 00:58:11;;;;;;;4.40;3.83;;;18.50;99.90;;;;;;5052769;28;20213;-71
2022/11/01 01:00:37;;;;;;;4.68;4.20;;;18.50;99.90;;;;;;5053923;28;20179;-70
2022/11/01 01:03:04;;;;;;;5.03;4.05;;;18.50;99.90;;;;;;5052841;28;20182;-70
2022/11/01 01:05:31;;;;;;;4.40;4.00;;;18.50;99.90;;;;;;5053731;28;20340;-70
2022/11/01 01:07:57;;;;;;;4.28;3.50;;;18.50;99.90;;;;;;5069291;28;20178;-71
2022/11/01 01:10:23;;;;;;;3.92;3.55;;;18.50;99.90;;;;;;5069526;28;20186;-71
2022/11/01 01:12:49;;;;;;;3.97;3.65;;;18.50;99.90;;;;;;5069219;28;20197;-70
2022/11/01 01:15:15;;;;;;;4.72;3.60;;;18.50;99.90;;;;;;5068694;28;20221;-70
2022/11/01 01:17:40;;;;;;;5.00;3.83;;;18.50;99.90;;;;;;5067972;28;20194;-70
2022/11/01 01:20:07;;;;;;;4.30;3.50;;;18.50;99.90;;;;;;5069311;28;20182;-71
2022/11/01 01:22:33;;;;;;;4.00;3.60;;;18.40;99.90;;;;;;5069003;28;20181;-71
2022/11/01 01:24:59;;;;;;;4.43;3.72;;;18.50;99.90;;;;;;5053387;28;20199;-70
2022/11/01 01:27:25;;;;;;;4.70;3.50;;;18.50;99.90;;;;;;5068933;28;20179;-70
2022/11/01 01:29:51;;;;;;;6.32;4.22;;;18.50;99.90;;;;;;5085666;28;20186;-70
2022/11/01 01:32:22;;;;;;;4.00;3.70;;;18.50;99.90;;;;;;5069018;28;20186;-70
2022/11/01 01:34:48;;;;;;;4.72;3.70;;;18.50;99.90;;;;;;5035647;28;20194;-70
2022/11/01 01:37:15;;;;;;;3.97;3.30;;;18.50;99.90;;;;;;5054177;28;20249;-71
2022/11/01 01:39:41;;;;;;;4.10;3.50;;;18.50;99.90;;;;;;5051901;28;20190;-70
2022/11/01 01:42:27;;;;;;;3.88;3.45;;;18.50;99.90;;;;;;5051947;28;20189;-70
2022/11/01 01:44:56;;;;;;;3.30;3.00;;;18.50;99.90;;;;;;5035202;28;20206;-70
2022/11/01 01:47:31;;;;;;;5.30;3.45;;;18.50;99.90;;;;;;5051716;28;20363;-70
2022/11/01 01:50:13;;;;;;;3.78;3.20;;;18.50;99.90;;;;;;5051958;28;20248;-70
2022/11/01 01:52:49;;;;;;;4.25;3.85;;;18.40;99.90;;;;;;5056788;28;20205;-70
2022/11/01 01:55:21;;;;;;;4.28;3.50;;;18.50;99.90;;;;;;5042906;28;20198;-70
2022/11/01 01:57:48;;;;;;;4.05;3.55;;;18.50;99.90;;;;;;5051928;28;20198;-70
2022/11/01 02:00:14;;;;;;;4.65;3.47;;;18.50;99.90;;;;;;5068206;28;20187;-70
2022/11/01 02:02:41;;;;;;;4.55;3.50;;;18.50;99.90;;;;;;5085320;28;20646;-70
2022/11/01 02:05:52;;;;;;;3.55;2.95;;;18.50;99.90;;;;;;5051478;28;20205;-70
2022/11/01 02:08:26;;;;;;;4.35;3.35;;;18.50;99.90;;;;;;5068159;28;20182;-70
2022/11/01 02:11:05;;;;;;;3.70;3.40;;;18.50;99.90;;;;;;5068379;28;20400;-71
2022/11/01 02:13:31;;;;;;;3.72;3.30;;;18.50;99.90;;;;;;5034860;28;20215;-70
2022/11/01 02:16:31;;;;;;;3.60;3.30;;;18.40;99.90;;;;;;5051328;28;20210;-70
2022/11/01 02:19:44;;;;;;;5.30;3.47;;;18.40;99.90;;;;;;5051524;28;20218;-70
2022/11/01 02:22:18;;;;;;;3.60;3.30;;;18.50;99.90;;;;;;5034645;28;20194;-70
2022/11/01 02:24:56;;;;;;;3.30;3.00;;;18.40;99.90;;;;;;5067791;28;20630;-71
2022/11/01 02:27:32;;;;;;;3.67;3.20;;;18.40;99.90;;;;;;5034694;28;20185;-71
2022/11/01 02:30:13;;;;;;;5.95;3.42;;;18.40;99.90;;;;;;5050892;28;20246;-71
2022/11/01 02:33:01;;;;;;;4.95;3.35;;;18.50;99.90;;;;;;5051145;28;20268;-70
2022/11/01 02:35:42;;;;;;;4.28;3.88;;;18.50;99.90;;;;;;5050944;28;20214;-70
2022/11/01 02:38:26;;;;;;;3.42;3.10;;;18.40;99.90;;;;;;5034374;28;20209;-70
2022/11/01 02:41:08;;;;;;;3.70;2.92;;;18.40;99.90;;;;;;5051123;28;20559;-71
2022/11/01 02:43:47;;;;;;;3.25;2.95;;;18.40;99.90;;;;;;5067769;28;20213;-70
2022/11/01 02:49:03;;;;;;;3.58;3.28;;;18.40;99.90;;;;;;5067922;28;20204;-70
2022/11/01 02:51:31;;;;;;;4.88;3.38;;;18.40;99.90;;;;;;5084706;28;20182;-70
2022/11/01 02:54:04;;;;;;;4.35;3.22;;;18.50;99.90;;;;;;5052033;28;20190;-71
2022/11/01 02:56:30;;;;;;;4.07;3.40;;;18.40;99.90;;;;;;5084130;28;20210;-71
2022/11/01 02:58:56;;;;;;;3.55;3.13;;;18.40;99.90;;;;;;5067497;28;20206;-71
2022/11/01 03:01:27;;;;;;;3.58;3.25;;;18.40;99.90;;;;;;5034008;28;20245;-71
2022/11/01 03:03:56;;;;;;;3.90;3.17;;;18.40;99.90;;;;;;5050981;28;20210;-71
2022/11/01 03:06:45;;;;;;;3.78;3.38;;;18.40;99.90;;;;;;5050251;28;20212;-70
2022/11/01 03:09:12;;;;;;;3.63;3.05;;;18.40;99.90;;;;;;5084697;28;20190;-70
2022/11/01 03:12:06;;;;;;;3.30;2.75;;;18.40;99.90;;;;;;5050944;28;20644;-71
2022/11/01 03:14:56;;;;;;;4.07;3.10;;;18.40;99.90;;;;;;5051665;28;20185;-71
2022/11/01 03:17:42;;;;;;;3.10;2.80;;;18.40;99.90;;;;;;5066961;28;20677;-71
2022/11/01 03:20:14;;;;;;;4.03;3.15;;;18.40;99.90;;;;;;5050061;28;20187;-70
2022/11/01 03:22:47;;;;;;;5.70;3.45;;;18.40;99.90;;;;;;5033675;28;20285;-71
2022/11/01 03:25:41;;;;;;;4.05;3.22;;;18.40;99.90;;;;;;5050130;28;20206;-70
2022/11/01 03:28:30;;;;;;;4.22;2.88;;;18.40;99.90;;;;;;5067590;28;20193;-70
2022/11/01 03:31:07;;;;;;;4.25;3.40;;;18.40;99.90;;;;;;5050681;28;20178;-71
2022/11/01 03:33:44;;;;;;;3.70;3.38;;;18.40;99.90;;;;;;5033885;28;20178;-70
2022/11/01 03:36:14;;;;;;;3.30;2.97;;;18.40;99.90;;;;;;5050162;28;20206;-70
2022/11/01 03:38:48;;;;;;;4.72;3.33;;;18.40;99.90;;;;;;5050427;28;20207;-70
2022/11/01 03:41:17;;;;;;;3.00;2.70;;;18.40;99.90;;;;;;5035755;28;20256;-71
2022/11/01 03:43:42;;;;;;;3.60;3.15;;;18.40;99.90;;;;;;5054275;28;20233;-70
2022/11/01 03:46:09;;;;;;;2.97;2.67;;;18.40;99.90;;;;;;5037226;28;20200;-70
2022/11/01 03:48:39;;;;;;;4.90;3.03;;;18.40;99.90;;;;;;5070878;28;20240;-70
2022/11/01 03:51:05;;;;;;;2.97;2.67;;;18.40;99.90;;;;;;5055552;28;20174;-71
2022/11/01 03:53:31;;;;;;;3.38;2.90;;;18.40;99.90;;;;;;5053966;28;20187;-71
2022/11/01 03:55:56;;;;;;;3.88;2.83;;;18.40;99.90;;;;;;5053789;28;20214;-71
2022/11/01 03:58:22;;;;;;;3.30;3.00;;;18.40;99.90;;;;;;5052132;28;20226;-70
2022/11/01 04:00:49;;;;;;;3.35;2.67;;;18.40;99.90;;;;;;5054911;28;20190;-71
2022/11/01 04:03:15;;;;;;;2.90;2.65;;;18.40;99.90;;;;;;5070468;28;20189;-70
2022/11/01 04:05:42;;;;;;;3.25;2.95;;;18.40;99.90;;;;;;5053504;28;20210;-70
2022/11/01 04:08:10;;;;;;;3.42;3.13;;;18.40;99.90;;;;;;5053413;28;20186;-70
2022/11/01 04:10:36;;;;;;;3.40;2.90;;;18.40;99.90;;;;;;5070323;28;20182;-70
2022/11/01 04:13:03;;;;;;;3.42;3.03;;;18.40;99.90;;;;;;5070241;28;20178;-70
2022/11/01 04:21:25;;;;;;;3.50;3.20;;;18.40;99.90;;;;;;5070635;28;20270;-71
2022/11/01 04:23:51;;;;;;;4.38;3.00;;;18.40;99.90;;;;;;5054689;28;20174;-71
2022/11/01 04:26:20;;;;;;;3.65;3.03;;;18.40;99.90;;;;;;5070200;28;20210;-70
2022/11/01 04:28:56;;;;;;;2.78;2.58;;;18.40;99.90;;;;;;5070322;28;20556;-70
2022/11/01 04:31:26;;;;;;;4.05;3.15;;;18.40;99.90;;;;;;5053463;28;20188;-71
2022/11/01 04:33:52;;;;;;;3.97;3.05;;;18.40;99.90;;;;;;5053553;28;20190;-70
2022/11/01 04:36:18;;;;;;;3.28;2.97;;;18.40;99.90;;;;;;5054112;28;20300;-70
2022/11/01 04:38:47;;;;;;;3.72;3.25;;;18.40;99.90;;;;;;5069760;28;20309;-69
2022/11/01 04:41:17;;;;;;;4.55;2.97;;;18.40;99.90;;;;;;5053124;28;20236;-70
2022/11/01 04:43:43;;;;;;;3.35;3.05;;;18.40;99.90;;;;;;5086730;28;20187;-71
2022/11/01 04:46:09;;;;;;;3.53;3.10;;;18.40;99.90;;;;;;5069433;28;20242;-71
2022/11/01 04:48:34;;;;;;;3.83;2.97;;;18.40;99.90;;;;;;5053115;28;20188;-71
2022/11/01 04:51:01;;;;;;;3.00;2.78;;;18.40;99.90;;;;;;5086355;28;20186;-70
2022/11/01 04:53:28;;;;;;;3.05;2.85;;;18.40;99.90;;;;;;5069958;28;20197;-71
2022/11/01 04:55:54;;;;;;;3.42;3.10;;;18.40;99.90;;;;;;5052930;28;20198;-70
2022/11/01 04:58:20;;;;;;;3.42;3.10;;;18.40;99.90;;;;;;5069413;28;20210;-71
2022/11/01 05:00:47;;;;;;;3.63;3.05;;;18.40;99.90;;;;;;5069438;28;20204;-70
2022/11/01 05:03:12;;;;;;;3.90;2.92;;;18.40;99.90;;;;;;5052673;28;20187;-71
2022/11/01 05:05:38;;;;;;;3.33;2.90;;;18.40;99.90;;;;;;5047614;28;20215;-70
2022/11/01 05:08:08;;;;;;;3.40;3.10;;;18.40;99.90;;;;;;5032929;28;20195;-71
2022/11/01 05:10:45;;;;;;;3.10;2.80;;;18.40;99.90;;;;;;5065917;28;20195;-71
2022/11/01 05:13:12;;;;;;;3.55;3.25;;;18.40;99.90;;;;;;5065907;28;20195;-70
2022/11/01 05:15:38;;;;;;;3.60;2.92;;;18.40;99.90;;;;;;5032314;28;20215;-70
2022/11/01 05:18:04;;;;;;;4.95;3.03;;;18.40;99.90;;;;;;5065645;28;20213;-71
2022/11/01 05:20:30;;;;;;;3.67;3.00;;;18.40;99.90;;;;;;5032496;28;20187;-71
2022/11/01 05:22:59;;;;;;;4.65;3.25;;;18.40;99.90;;;;;;5048911;28;20191;-71
2022/11/01 05:25:25;;;;;;;3.80;3.40;;;18.40;99.90;;;;;;5032055;28;20269;-70
2022/11/01 05:27:51;;;;;;;3.95;3.55;;;18.40;99.90;;;;;;5065726;28;20183;-71
2022/11/01 05:30:16;;;;;;;3.72;3.42;;;18.40;99.90;;;;;;5065612;28;20186;-71
2022/11/01 05:32:42;;;;;;;3.65;3.35;;;18.40;99.90;;;;;;5049045;28;20197;-71
2022/11/01 05:35:08;;;;;;;4.32;3.20;;;18.40;99.90;;;;;;5048948;28;20207;-71
2022/11/01 05:37:35;;;;;;;4.00;3.03;;;18.40;99.90;;;;;;5065273;28;20250;-71
2022/11/01 05:40:02;;;;;;;4.90;3.45;;;18.40;99.90;;;;;;5077909;28;20236;-71
2022/11/01 05:42:27;;;;;;;3.10;2.90;;;18.40;99.90;;;;;;5052246;28;20189;-71
2022/11/01 05:44:53;;;;;;;3.50;3.20;;;18.40;99.90;;;;;;5052167;28;20198;-71
2022/11/01 05:47:19;;;;;;;4.57;2.97;;;18.40;99.90;;;;;;5035317;28;20193;-71
2022/11/01 05:49:44;;;;;;;3.38;3.08;;;18.40;99.90;;;;;;5051861;28;20186;-70
2022/11/01 05:52:10;;;;;;;4.07;3.00;;;18.40;99.90;;;;;;5034946;28;20187;-70
2022/11/01 05:54:36;;;;;;;3.40;3.10;;;18.40;99.90;;;;;;5068422;28;20179;-70
2022/11/01 05:57:04;;;;;;;3.70;3.10;;;18.40;99.90;;;;;;5068191;28;20628;-70
2022/11/01 05:59:30;;;;;;;3.00;2.70;;;18.40;99.90;;;;;;5051892;28;20198;-70
2022/11/01 06:01:56;;;;;;;3.65;3.35;;;18.40;99.90;;;;;;5051555;28;20186;-71
2022/11/01 06:04:22;;;;;;;4.30;3.22;;;18.40;99.90;;;;;;5051306;28;20182;-70
2022/11/01 06:06:48;;;;;;;4.07;3.10;;;18.30;99.90;;;;;;5068105;28;20753;-70
2022/11/01 06:09:13;;;;;;;3.55;3.25;;;18.40;99.90;;;;;;5051650;28;20205;-71
2022/11/01 06:11:39;;;;;;;3.55;3.25;;;18.40;99.90;;;;;;5034803;28;20260;-71
2022/11/01 06:14:05;;;;;;;3.20;2.70;;;18.40;99.90;;;;;;5068190;28;20189;-71
2022/11/01 06:16:30;;;;;;;3.95;3.35;;;18.40;99.90;;;;;;5068088;28;20248;-70
2022/11/01 06:18:56;;;;;;;3.85;2.95;;;18.40;99.90;;;;;;5051247;28;20592;-71
2022/11/01 06:21:22;;;;;;;3.35;3.05;;;18.40;99.90;;;;;;5034698;28;20187;-71
2022/11/01 06:23:51;;;;;;;3.75;3.05;;;18.40;99.90;;;;;;5051365;28;20195;-70
2022/11/01 06:26:18;;;;;;;4.88;3.13;;;18.40;99.90;;;;;;5050972;28;20213;-70
2022/11/01 06:28:45;;;;;;;3.00;2.70;;;18.40;99.90;;;;;;5034665;28;20189;-70
2022/11/01 06:31:12;;;;;;;3.10;2.80;;;18.40;99.90;;;;;;5051144;28;20190;-71
2022/11/01 06:33:38;;;;;;;4.30;3.08;;;18.40;99.90;;;;;;5051184;28;20187;-70
2022/11/01 06:36:05;;;;;;;3.28;2.97;;;18.40;99.90;;;;;;5052018;28;20213;-70
2022/11/01 06:38:30;;;;;;;3.97;3.13;;;18.40;99.90;;;;;;5067786;28;20218;-71
2022/11/01 06:40:56;;;;;;;2.88;2.67;;;18.30;99.90;;;;;;5052286;28;20182;-71
2022/11/01 06:43:22;;;;;;;4.28;3.25;;;18.40;99.90;;;;;;5052277;28;20183;-71
2022/11/01 06:45:48;;;;;;;2.55;2.35;;;18.40;99.90;;;;;;5034066;28;20670;-71
2022/11/01 06:48:13;;;;;;;3.08;2.78;;;18.40;99.90;;;;;;5034254;28;20565;-71
2022/11/01 06:50:39;;;;;;;2.45;2.25;;;18.40;99.90;;;;;;5052156;28;20654;-70
2022/11/01 06:53:05;;;;;;;2.92;2.72;;;18.40;99.90;;;;;;5067586;28;20189;-70
2022/11/01 06:55:31;;;;;;;2.72;2.53;;;18.30;99.90;;;;;;5034133;28;20237;-70
2022/11/01 06:58:04;;;;;;;2.70;2.50;;;18.30;99.90;;;;;;5050859;28;20210;-71
2022/11/01 07:00:30;;;;;;;3.20;2.90;;;18.40;99.90;;;;;;5052117;28;20274;-71
2022/11/01 07:03:05;;;;;;;2.97;2.50;;;18.40;99.90;;;;;;5050947;28;20183;-72
2022/11/01 07:05:34;;;;;;;2.92;2.55;;;18.40;99.90;;;;;;5047463;28;20203;-70
2022/11/01 07:08:01;;;;;;;2.40;2.20;;;18.40;99.90;;;;;;5030532;28;20190;-71
2022/11/01 07:10:27;;;;;;;2.53;2.33;;;18.40;99.90;;;;;;5060999;28;20196;-71
2022/11/01 07:13:01;;;;;;;3.85;2.60;;;18.40;99.90;;;;;;5054559;28;20273;-71
2022/11/01 07:15:28;;;;;;;2.70;2.50;;;18.40;99.90;;;;;;5053456;28;20593;-70
2022/11/01 07:17:56;;;;;;;3.15;2.47;;;18.40;99.90;;;;;;5038136;28;20226;-71
2022/11/01 07:20:23;;;;;;;2.85;2.35;;;18.40;99.90;;;;;;5054664;28;20213;-71
2022/11/01 07:23:03;;;;;;;2.95;2.60;;;18.40;99.90;;;;;;5042687;28;20181;-71
2022/11/01 07:25:31;;;;;;;2.30;2.10;;;18.40;99.90;;;;;;5091639;28;20291;-70
2022/11/01 07:27:58;;;;;;;2.55;2.25;;;18.40;99.90;;;;;;5071056;28;20539;-71
2022/11/01 07:30:25;;;;;;;2.70;2.35;;;18.40;99.90;;;;;;5054701;28;20198;-71
2022/11/01 07:32:56;;;;;;;2.10;1.90;;;18.40;99.90;;;;;;5040062;28;20183;-71
2022/11/01 07:35:25;;;;;;;2.33;2.13;;;18.40;99.90;;;;;;5075130;28;20211;-70
2022/11/01 07:37:52;;;;;;;2.38;2.17;;;18.40;99.90;;;;;;5054344;28;20206;-71
2022/11/01 07:40:18;;;;;;;2.30;2.10;;;18.40;99.90;;;;;;5059412;28;20178;-71
2022/11/01 07:42:44;;;;;;;2.25;2.05;;;18.40;99.90;;;;;;5055435;28;20183;-71
2022/11/01 07:45:12;;;;;;;2.45;2.10;;;18.40;99.90;;;;;;5037498;28;20209;-71
2022/11/01 07:47:38;;;;;;;2.28;2.08;;;18.40;99.90;;;;;;5053929;28;20186;-71
2022/11/01 07:50:05;;;;;;;2.42;2.22;;;18.40;99.90;;;;;;5054371;28;20252;-71
2022/11/01 07:52:32;;;;;;;2.30;2.10;;;18.40;99.90;;;;;;5054163;28;20191;-71
2022/11/01 07:54:57;;;;;;;2.50;2.30;;;18.40;99.90;;;;;;5037340;28;20322;-71
2022/11/01 07:57:23;;;;;;;2.05;1.88;;;18.40;99.90;;;;;;5053554;28;20230;-71
2022/11/01 07:59:49;;;;;;;2.53;2.10;;;18.50;99.90;;;;;;5053984;28;20185;-71
2022/11/01 08:02:14;;;;;;;3.03;2.13;;;18.40;99.90;;;;;;5053893;28;20179;-71
2022/11/01 08:04:40;;;;;;;2.42;1.85;;;18.40;99.90;;;;;;5037060;28;20191;-71
2022/11/01 08:07:06;;;;;;;2.15;1.95;;;18.40;99.90;;;;;;5037034;28;20645;-71
2022/11/01 08:09:32;;;;;;;2.28;2.08;;;18.40;99.90;;;;;;5054064;28;20190;-72
2022/11/01 08:11:58;;;;;;;3.05;2.13;;;18.40;99.90;;;;;;5053898;28;20643;-71
2022/11/01 08:14:24;;;;;;;2.92;2.13;;;18.40;99.90;;;;;;5053953;28;20237;-71
2022/11/01 08:16:54;;;;;;;2.55;2.35;;;18.40;99.90;;;;;;5053453;28;20238;-72
2022/11/01 08:19:21;;;;;;;2.50;2.30;;;18.40;99.90;;;;;;5053811;28;20301;-70
2022/11/01 08:21:49;;;;;;;3.42;2.03;;;18.40;99.90;;;;;;5037167;28;20183;-71
2022/11/01 08:24:15;;;;;;;3.50;1.85;;;18.50;99.90;;;;;;5053463;28;20183;-71
2022/11/01 08:26:41;;;;;;;2.15;1.95;;;18.40;99.90;;;;;;5064451;28;20202;-71
2022/11/01 08:29:07;;;;;;;2.60;1.90;;;18.50;99.90;;;;;;5074663;28;20234;-71
2022/11/01 08:31:33;;;;;;;2.30;2.10;;;18.50;99.90;;;;;;5073537;28;20190;-71
2022/11/01 08:33:59;;;;;;;1.90;1.80;;;18.40;99.90;;;;;;5090093;28;20280;-71
2022/11/01 08:36:24;;;;;;;2.28;2.13;;;18.40;99.90;;;;;;5081496;28;20226;-71
2022/11/01 08:38:50;;;;;;;2.35;2.15;;;18.50;99.90;;;;;;5067931;28;20211;-71
2022/11/01 08:41:16;;;;;;;2.45;2.08;;;18.40;99.90;;;;;;5074269;28;20182;-71
2022/11/01 08:43:41;;;;;;;2.95;2.08;;;18.50;99.90;;;;;;5073399;28;20243;-71
2022/11/01 08:46:09;;;;;;;1.80;1.70;;;18.50;99.90;;;;;;5061993;28;20210;-71
2022/11/01 08:48:35;;;;;;;2.05;1.85;;;18.50;99.90;;;;;;5073502;28;20179;-72
2022/11/01 08:51:01;;;;;;;2.10;1.90;;;18.50;99.90;;;;;;5061410;28;20224;-71
2022/11/01 08:53:27;;;;;;;2.47;2.28;;;18.50;99.90;;;;;;5064882;28;20201;-71
2022/11/01 08:55:54;;;;;;;1.95;1.80;;;18.50;99.90;;;;;;5052539;28;20210;-71
2022/11/01 08:58:20;;;;;;;1.95;1.85;;;18.50;99.90;;;;;;5052785;28;20694;-71
2022/11/01 09:00:46;;;;;;;2.72;2.30;;;18.50;99.90;;;;;;5056416;28;20190;-72
2022/11/01 09:03:13;;;;;;;2.10;1.90;;;18.50;99.90;;;;;;5052395;28;20182;-72
2022/11/01 09:05:39;;;;;;;2.80;2.28;;;18.50;99.90;;;;;;5052741;28;20234;-71
2022/11/01 09:08:07;;;;;;;2.50;2.30;;;18.50;99.90;;;;;;5034421;28;20197;-71
2022/11/01 09:10:33;;;;;;;2.50;2.30;;;18.50;99.90;;;;;;5052465;28;20182;-71
2022/11/01 09:13:00;;;;;;;2.33;2.13;;;18.50;99.90;;;;;;5052541;28;20657;-71
2022/11/01 09:15:25;;;;;;;2.20;2.00;;;18.50;99.90;;;;;;5053614;28;20202;-71
2022/11/01 09:17:51;;;;;;;2.17;2.00;;;18.50;99.90;;;;;;5046676;28;20216;-71
2022/11/01 09:20:18;;;;;;;2.13;1.92;;;18.50;99.90;;;;;;5055626;28;20182;-71
2022/11/01 09:22:44;;;;;;;2.42;2.22;;;18.60;99.90;;;;;;5055358;28;20186;-71
2022/11/01 09:25:11;;;;;;;2.10;2.00;;;18.50;99.90;;;;;;5038111;28;20206;-71
2022/11/01 09:27:37;;;;;;;2.20;2.00;;;18.50;99.90;;;;;;5064748;28;20173;-72
2022/11/01 09:30:04;;;;;;;2.90;2.35;;;18.50;99.90;;;;;;5106083;28;20177;-71
2022/11/01 09:32:30;;;;;;;2.40;2.20;;;18.50;99.90;;;;;;5087093;28;20183;-71
2022/11/01 09:34:56;;;;;;;2.45;2.25;;;18.50;99.90;;;;;;5065956;28;20213;-73
2022/11/01 09:37:23;;;;;;;2.47;2.28;;;18.60;99.90;;;;;;5065061;28;20199;-72
2022/11/01 09:39:49;;;;;;;3.28;2.30;;;18.50;99.90;;;;;;5051088;28;20183;-71
2022/11/01 09:42:31;;;;;;;2.35;2.15;;;18.50;99.90;;;;;;5078129;28;20178;-71
2022/11/01 09:45:06;;;;;;;2.85;2.60;;;18.60;99.90;;;;;;5069451;28;20222;-71
2022/11/01 09:47:34;;;;;;;2.90;2.20;;;18.50;99.90;;;;;;5057283;28;20188;-71
2022/11/01 09:50:21;;;;;;;2.20;2.00;;;18.50;99.90;;;;;;5052616;28;20208;-71
2022/11/01 09:52:49;;;;;;;2.50;2.30;;;18.50;99.90;;;;;;5039039;28;20187;-72
2022/11/01 09:55:23;;;;;;;2.45;2.25;;;18.50;99.90;;;;;;5041061;28;20682;-71
2022/11/01 09:58:18;;;;;;;2.30;2.10;;;18.50;99.90;;;;;;5070517;28;20205;-72
2022/11/01 10:01:03;;;;;;;2.42;2.05;;;18.50;99.90;;;;;;5104664;28;20606;-72
2022/11/01 10:04:27;;;;;;;4.00;2.30;;;18.50;99.90;;;;;;5054668;28;20193;-72
2022/11/01 10:07:19;;;;;;;2.58;2.38;;;18.50;99.90;;;;;;5071248;28;20209;-71
2022/11/01 10:10:01;;;;;;;3.97;2.28;;;18.50;99.90;;;;;;5055426;28;20181;-71
2022/11/01 10:12:32;;;;;;;2.47;2.28;;;18.50;99.90;;;;;;5071509;28;20169;-71
2022/11/01 10:15:19;;;;;;;2.67;2.20;;;18.50;99.90;;;;;;5054628;28;20213;-71
2022/11/01 10:17:53;;;;;;;2.80;2.20;;;18.50;99.90;;;;;;5070996;28;20730;-72
2022/11/01 10:20:31;;;;;;;3.50;2.45;;;18.60;99.90;;;;;;5071412;28;20177;-72
2022/11/01 10:22:59;;;;;;;4.07;2.67;;;18.60;99.90;;;;;;5069288;28;20181;-71
2022/11/01 10:25:31;;;;;;;3.15;2.83;;;18.50;99.90;;;;;;5069473;28;20237;-72
2022/11/01 10:28:50;;;;;;;3.17;2.50;;;18.60;99.90;;;;;;5053991;28;20201;-72
2022/11/01 10:31:25;;;;;;;3.38;2.30;;;18.50;99.90;;;;;;5044110;28;20202;-72
2022/11/01 10:34:20;;;;;;;3.45;2.42;;;18.60;99.90;;;;;;5068055;28;20186;-72
2022/11/01 10:36:49;;;;;;;3.08;2.67;;;18.50;99.90;;;;;;5057413;28;20240;-72
2022/11/01 10:39:50;;;;;;;3.47;2.85;;;18.60;99.90;;;;;;5059328;28;20304;-71
2022/11/01 10:42:16;;;;;;;3.38;2.30;;;18.60;99.90;;;;;;5059097;28;20220;-71
2022/11/01 10:44:53;;;;;;;3.20;2.42;;;18.60;99.90;;;;;;5059188;28;20218;-71
2022/11/01 10:47:22;;;;;;;3.50;2.38;;;18.60;99.90;;;;;;5045102;28;20178;-71
2022/11/01 10:50:05;;;;;;;2.40;2.20;;;18.60;99.90;;;;;;5052449;28;20250;-71
2022/11/01 10:53:00;;;;;;;3.88;2.30;;;18.60;99.90;;;;;;5047944;28;20189;-71
2022/11/01 10:56:07;;;;;;;3.38;2.20;;;18.60;99.90;;;;;;5036139;28;20217;-71
2022/11/01 10:58:33;;;;;;;3.05;2.47;;;18.60;99.90;;;;;;5009517;28;20218;-72
2022/11/01 11:01:08;;;;;;;2.30;1.98;;;18.60;99.90;;;;;;5043759;28;20194;-71
2022/11/01 11:03:37;;;;;;;2.30;2.15;;;18.60;99.90;;;;;;5050486;28;20182;-71
2022/11/01 11:06:08;;;;;;;3.00;2.70;;;18.60;99.90;;;;;;5033860;28;20226;-71
2022/11/01 11:08:38;;;;;;;2.42;2.10;;;18.60;99.90;;;;;;5050761;28;20722;-72
2022/11/01 11:11:13;;;;;;;3.38;2.47;;;18.60;99.90;;;;;;5033979;28;20260;-71
2022/11/01 11:13:44;;;;;;;3.65;2.42;;;18.60;99.90;;;;;;5050868;28;20273;-71
2022/11/01 11:16:59;;;;;;;2.35;2.15;;;18.60;99.90;;;;;;5033713;28;20581;-71
2022/11/01 11:19:28;;;;;;;3.40;2.13;;;18.60;99.90;;;;;;5050554;28;20220;-71
2022/11/01 11:21:56;;;;;;;3.38;2.50;;;18.60;99.90;;;;;;5034134;28;20276;-71
2022/11/01 11:24:29;;;;;;;2.83;2.35;;;18.60;99.90;;;;;;5033865;28;20183;-71
2022/11/01 11:26:56;;;;;;;2.50;2.30;;;18.60;99.90;;;;;;5033503;28;20205;-71
2022/11/01 11:29:49;;;;;;;3.22;2.22;;;18.60;99.90;;;;;;5050584;28;20190;-71
2022/11/01 11:32:21;;;;;;;2.53;2.33;;;18.60;99.90;;;;;;5050386;28;20203;-71
2022/11/01 11:35:01;;;;;;;3.33;2.05;;;18.60;99.90;;;;;;5050543;28;20205;-71
2022/11/01 11:37:31;;;;;;;3.33;2.35;;;18.60;99.90;;;;;;5050130;28;20194;-71
2022/11/01 11:40:11;;;;;;;2.45;2.03;;;18.60;99.90;;;;;;5051675;28;20175;-71
2022/11/01 11:42:37;;;;;;;2.15;1.95;;;18.60;99.90;;;;;;5051652;28;20170;-71
2022/11/01 11:45:33;;;;;;;2.40;2.20;;;18.60;99.90;;;;;;5033495;28;20282;-71
2022/11/01 11:48:20;;;;;;;3.15;1.85;;;18.60;99.90;;;;;;5050025;28;20197;-72
2022/11/01 11:50:52;;;;;;;2.33;2.00;;;18.60;99.90;;;;;;5033336;28;20212;-72
2022/11/01 11:53:22;;;;;;;2.78;2.10;;;18.60;99.90;;;;;;5034033;28;20732;-71
2022/11/01 11:55:59;;;;;;;2.47;2.00;;;18.60;99.90;;;;;;5050062;28;20207;-71
2022/11/01 11:58:43;;;;;;;2.90;2.28;;;18.60;99.90;;;;;;5033664;28;20202;-72
2022/11/01 12:01:14;;;;;;;2.38;2.08;;;18.60;99.90;;;;;;5050662;28;20210;-72
2022/11/01 12:03:55;;;;;;;2.30;2.10;;;18.60;99.90;;;;;;5070840;28;20167;-71
2022/11/01 12:06:26;;;;;;;2.20;2.00;;;18.70;99.90;;;;;;5054766;28;20198;-72
2022/11/01 12:08:59;;;;;;;2.47;1.88;;;18.70;99.90;;;;;;5054048;28;20178;-72
2022/11/01 12:11:39;;;;;;;1.75;1.63;;;18.70;99.90;;;;;;5053481;28;20202;-71
2022/11/01 12:14:24;;;;;;;2.38;2.03;;;18.60;99.90;;;;;;5073745;28;20194;-71
2022/11/01 12:16:50;;;;;;;3.55;2.10;;;18.70;99.90;;;;;;5066687;28;20211;-72
2022/11/01 12:19:30;;;;;;;2.05;1.85;;;18.60;99.90;;;;;;5057498;28;20214;-71
2022/11/01 12:22:01;;;;;;;2.15;1.90;;;18.70;99.90;;;;;;5036804;28;20273;-73
2022/11/01 12:24:44;;;;;;;2.33;1.85;;;18.70;99.90;;;;;;5036828;28;20189;-73
2022/11/01 12:27:16;;;;;;;2.10;1.90;;;18.70;99.90;;;;;;5053101;28;20178;-72
2022/11/01 12:29:52;;;;;;;2.63;1.73;;;18.70;99.90;;;;;;5036664;28;20240;-73
2022/11/01 12:32:26;;;;;;;2.45;1.80;;;18.70;99.90;;;;;;5053431;28;20636;-72
2022/11/01 12:34:56;;;;;;;3.15;1.90;;;18.70;99.90;;;;;;5053190;28;20673;-73
2022/11/01 12:37:48;;;;;;;2.03;1.73;;;18.70;99.90;;;;;;5052886;28;20285;-73
2022/11/01 12:40:34;;;;;;;1.75;1.50;;;18.70;99.90;;;;;;5054514;28;20179;-72
2022/11/01 12:43:38;;;;;;;2.22;2.03;;;18.70;99.90;;;;;;5053528;28;20237;-73
2022/11/01 12:46:23;;;;;;;1.80;1.70;;;18.70;99.90;;;;;;5043931;28;20222;-71
2022/11/01 12:48:57;;;;;;;1.95;1.50;;;18.70;99.90;;;;;;5069612;28;20247;-72
2022/11/01 12:51:33;;;;;;;1.63;1.52;;;18.70;99.90;;;;;;5086940;28;20182;-73
2022/11/01 12:54:29;;;;;;;2.15;1.70;;;18.70;99.90;;;;;;5053095;28;20220;-73
2022/11/01 12:56:55;;;;;;;2.45;1.60;;;18.70;99.90;;;;;;5086187;28;20701;-73
2022/11/01 12:59:31;;;;;;;4.50;1.85;;;18.70;99.90;;;;;;5086189;28;20256;-73
2022/11/01 13:02:38;;;;;;;2.55;1.35;;;18.70;99.90;;;;;;5069413;28;20175;-73
2022/11/01 13:05:14;;;;;;;3.25;1.50;;;18.70;99.90;;;;;;5053729;28;20206;-72
2022/11/01 13:07:54;;;;;;;1.70;1.60;;;18.70;99.90;;;;;;5066598;28;20177;-73
2022/11/01 13:10:27;;;;;;;2.10;1.60;;;18.70;99.90;;;;;;5089390;28;20186;-73
2022/11/01 13:13:41;;;;;;;3.67;1.73;;;18.70;99.90;;;;;;5076500;28;20181;-73
2022/11/01 13:16:26;;;;;;;3.78;1.75;;;18.70;99.90;;;;;;5064487;28;20286;-72
2022/11/01 13:19:02;;;;;;;1.83;1.50;;;18.70;99.90;;;;;;5084946;28;20248;-74
2022/11/01 13:22:19;;;;;;;2.53;1.70;;;18.70;99.90;;;;;;5052155;28;20179;-74